Terminal Aerodrome Forecast
Issued by NWS

Home | Current Version | Previous Version | Text Only | Print | Product List | Glossary On
Versions: 1 2 3 4 5 6 7 8 9 10 11 12 13 14 15 16 17 18
000
FTUS44 KLZK 271720
TAFHOT
TAF
KHOT 271720Z 2718/2818 16005KT P6SM SCT250
     FM272100 15007KT P6SM SCT100 BKN250
     FM280600 12010KT P6SM SCT020 BKN040
     FM281200 15010G16KT P6SM SCT010 BKN020=

USA.gov is the U.S. government's official web portal to all federal, state and local government web resources and services.